Time;durP1;ratioP1;P1;durP2;ratioP2;P2;SDS_P1;SDS_P2;PMS_P1;PMS_P2;Temp;Humidity;BMP_temperature;BMP_pressure;BME280_temperature;BME280_humidity;BME280_pressure;Samples;Min_cycle;Max_cycle;Signal;HPM_P1;HPM_P2
2021/12/05 00:18:48;;;;;;;340.45;163.55;;;;;;;15.49;100.00;98877.41;5054413;28;20051;-69
2021/12/05 00:21:56;;;;;;;335.38;163.60;;;;;;;15.54;100.00;98867.69;5065526;28;20142;-68
2021/12/05 00:24:43;;;;;;;329.25;165.40;;;;;;;15.49;100.00;98864.44;5037331;28;20083;-70
2021/12/05 00:27:41;;;;;;;335.20;167.55;;;;;;;15.35;100.00;98866.84;5068703;28;20488;-69
2021/12/05 00:43:03;;;;;;;347.42;174.77;;;;;;;15.38;100.00;98878.84;5065332;28;20058;-70
2021/12/05 00:49:00;;;;;;;343.40;168.57;;;;;;;15.29;100.00;98887.88;5062753;28;20059;-69
2021/12/05 00:52:10;;;;;;;342.10;174.75;;;;;;;15.19;100.00;98873.63;5063368;28;20610;-69
2021/12/05 01:15:33;;;;;;;357.42;175.02;;;;;;;15.61;100.00;98928.81;5087290;28;20824;-69
2021/12/05 01:18:18;;;;;;;352.83;175.95;;;;;;;15.71;100.00;98933.59;5032188;28;20116;-69
2021/12/05 01:21:14;;;;;;;361.15;177.13;;;;;;;15.69;100.00;98934.50;5052790;28;20052;-68
2021/12/05 01:30:14;;;;;;;354.63;175.10;;;;;;;15.78;100.00;98942.78;5050652;28;20725;-68
2021/12/05 02:42:29;;;;;;;393.67;184.52;;;;;;;16.21;100.00;99010.00;5067609;28;20162;-69
2021/12/05 02:45:10;;;;;;;368.95;179.60;;;;;;;16.27;100.00;99004.53;5049737;28;20060;-67
2021/12/05 02:48:06;;;;;;;377.35;181.82;;;;;;;16.38;100.00;99010.03;5027469;28;20049;-69
2021/12/05 02:50:44;;;;;;;396.88;188.30;;;;;;;16.52;100.00;99011.13;5045946;28;20048;-68
2021/12/05 02:53:48;;;;;;;368.27;187.43;;;;;;;16.71;100.00;99017.13;5028702;28;20045;-67
2021/12/05 02:56:46;;;;;;;377.50;182.50;;;;;;;16.86;100.00;99015.53;5034663;28;20044;-68
2021/12/05 03:02:38;;;;;;;366.63;178.93;;;;;;;17.28;100.00;99028.97;5009247;28;20049;-69
2021/12/05 03:05:21;;;;;;;;;;;;;;;17.38;100.00;99031.94;5046587;28;20056;-69
2021/12/05 03:08:11;;;;;;;378.95;178.75;;;;;;;17.59;100.00;99036.03;5037252;28;19979;-68
2021/12/05 03:10:57;;;;;;;363.30;181.18;;;;;;;17.68;100.00;99037.34;5049170;28;20799;-68
2021/12/05 03:13:46;;;;;;;359.58;183.15;;;;;;;17.69;100.00;99036.41;5049508;28;20084;-68
2021/12/05 03:16:34;;;;;;;352.38;175.93;;;;;;;17.80;100.00;99055.75;5028797;28;20045;-68
2021/12/05 03:19:25;;;;;;;347.65;174.00;;;;;;;17.82;100.00;99046.09;5028227;28;20485;-69
2021/12/05 03:22:08;;;;;;;355.65;177.93;;;;;;;17.88;100.00;99045.75;5028334;28;20526;-67
2021/12/05 03:24:57;;;;;;;367.52;174.75;;;;;;;18.00;100.00;99046.03;5026881;28;20068;-69
2021/12/05 03:27:48;;;;;;;357.90;175.55;;;;;;;18.13;100.00;99050.47;5026587;28;20064;-67
2021/12/05 03:30:34;;;;;;;340.45;167.35;;;;;;;18.46;100.00;99058.22;5006728;28;20477;-68
2021/12/05 03:33:26;;;;;;;;;;;;;;;18.61;100.00;99059.16;5021531;28;20052;-69
2021/12/05 03:36:11;;;;;;;331.35;158.05;;;;;;;18.67;100.00;99066.66;5028139;28;19925;-70
2021/12/05 03:39:07;;;;;;;327.90;166.30;;;;;;;18.68;100.00;99065.69;5028137;28;20053;-70
2021/12/05 03:41:52;;;;;;;320.17;161.25;;;;;;;18.95;100.00;99068.50;5028215;28;20056;-70
2021/12/05 03:44:42;;;;;;;320.40;160.85;;;;;;;19.21;100.00;99078.28;5020152;28;20044;-70
2021/12/05 03:47:41;;;;;;;313.42;157.95;;;;;;;19.78;100.00;99083.59;5044956;28;20040;-69
2021/12/05 03:50:18;;;;;;;317.90;159.65;;;;;;;20.00;100.00;99083.13;5064186;28;20542;-67
2021/12/05 03:53:11;;;;;;;299.92;154.57;;;;;;;20.39;100.00;99091.13;5042733;28;20105;-67
2021/12/05 03:56:04;;;;;;;284.85;145.20;;;;;;;20.74;100.00;99091.47;5051578;28;20653;-68
2021/12/05 03:58:55;;;;;;;270.00;145.40;;;;;;;20.97;100.00;99082.94;5047791;28;20044;-68
2021/12/05 04:01:39;;;;;;;265.40;140.80;;;;;;;21.20;100.00;99096.34;5064669;28;20139;-69
2021/12/05 04:04:29;;;;;;;261.35;138.00;;;;;;;21.46;100.00;99100.69;5067024;28;20049;-68
2021/12/05 04:07:15;;;;;;;234.35;131.02;;;;;;;21.68;96.13;99102.66;5064334;28;20055;-67
2021/12/05 04:10:06;;;;;;;219.52;116.75;;;;;;;21.83;91.84;99111.25;5068275;28;20090;-69
2021/12/05 04:12:50;;;;;;;213.25;118.45;;;;;;;22.09;91.72;99115.56;5068329;28;20051;-68
2021/12/05 04:15:39;;;;;;;211.52;111.40;;;;;;;22.59;80.88;99117.19;5081578;28;20049;-69
2021/12/05 04:18:25;;;;;;;184.65;105.90;;;;;;;22.64;84.35;99117.72;5047710;28;20055;-69
2021/12/05 04:21:17;;;;;;;175.48;102.50;;;;;;;22.64;87.35;99114.25;5047730;28;20045;-69
2021/12/05 04:24:06;;;;;;;184.98;103.00;;;;;;;22.68;83.59;99119.16;5050816;28;20098;-69
2021/12/05 04:26:50;;;;;;;164.65;94.75;;;;;;;22.92;81.75;99124.44;5047778;28;20139;-70
2021/12/05 04:29:40;;;;;;;155.27;87.22;;;;;;;23.15;79.55;99123.59;5047755;28;20044;-71
2021/12/05 04:32:22;;;;;;;147.07;83.15;;;;;;;23.17;78.01;99126.09;5051003;28;20141;-69
2021/12/05 04:35:11;;;;;;;118.00;68.18;;;;;;;23.25;66.42;99131.63;5068269;28;20052;-69
2021/12/05 04:37:54;;;;;;;;;;;;;;;23.59;64.05;99127.34;5039431;28;20044;-69
2021/12/05 04:40:46;;;;;;;122.70;66.55;;;;;;;23.58;62.99;99130.91;5051631;28;20623;-70
2021/12/05 04:43:36;;;;;;;120.38;64.95;;;;;;;23.50;60.25;99128.03;5070216;28;20052;-70
2021/12/05 04:46:34;;;;;;;109.28;58.22;;;;;;;23.67;61.47;99129.38;5052813;28;20056;-70
2021/12/05 04:49:24;;;;;;;95.05;55.85;;;;;;;23.55;60.58;99120.63;5056741;28;20186;-69
2021/12/05 04:52:18;;;;;;;105.95;56.75;;;;;;;23.54;61.59;99126.88;5058205;28;20121;-69
2021/12/05 04:55:01;;;;;;;94.68;49.10;;;;;;;23.74;60.31;99120.06;5070479;28;20052;-68
2021/12/05 04:57:51;;;;;;;105.70;54.28;;;;;;;23.91;59.26;99119.59;5079002;28;20083;-68
2021/12/05 05:00:45;;;;;;;118.63;58.75;;;;;;;23.68;60.47;99116.13;5049383;28;20127;-68
2021/12/05 05:03:35;;;;;;;122.68;63.45;;;;;;;23.37;59.08;99124.63;5074764;28;20040;-68
2021/12/05 05:06:31;;;;;;;122.32;62.78;;;;;;;23.48;58.92;99117.63;5047781;28;20045;-69
2021/12/05 05:09:07;;;;;;;110.70;56.58;;;;;;;23.37;60.64;99122.00;5064731;28;20036;-69
2021/12/05 05:11:56;;;;;;;102.43;54.50;;;;;;;23.83;62.29;99114.94;5053825;28;20045;-70
2021/12/05 05:14:38;;;;;;;106.95;52.42;;;;;;;23.87;59.61;99120.78;5068822;28;20067;-71
2021/12/05 05:17:34;;;;;;;160.90;74.35;;;;;;;23.42;62.89;99114.59;5068626;28;20057;-70
2021/12/05 05:21:05;;;;;;;153.73;81.70;;;;;;;23.55;64.92;99118.00;5067667;28;20491;-70
2021/12/05 05:23:45;;;;;;;155.95;85.90;;;;;;;23.42;67.70;99119.84;5075814;28;20121;-70
2021/12/05 05:29:43;;;;;;;152.07;87.32;;;;;;;23.80;65.54;99116.94;5068275;28;20044;-69
2021/12/05 05:42:25;;;;;;;145.27;75.72;;;;;;;23.46;65.81;99119.53;5066566;28;20072;-70
2021/12/05 05:50:54;;;;;;;127.55;66.93;;;;;;;23.51;64.87;99103.41;5041729;28;20049;-67
2021/12/05 05:53:36;;;;;;;116.80;64.20;;;;;;;23.69;62.24;99096.75;5048382;28;20648;-69
2021/12/05 05:56:28;;;;;;;125.57;61.35;;;;;;;23.64;63.83;99094.44;5041795;28;20056;-70
2021/12/05 06:05:27;;;;;;;129.88;63.67;;;;;;;23.52;64.56;99078.78;5027924;28;20440;-70
2021/12/05 06:08:24;;;;;;;116.95;60.28;;;;;;;23.00;64.97;99076.59;5035177;28;20053;-70
2021/12/05 06:11:04;;;;;;;122.32;62.55;;;;;;;23.61;64.68;99072.81;5035611;28;20509;-70
2021/12/05 06:14:02;;;;;;;114.88;61.70;;;;;;;23.45;64.87;99072.28;5049226;28;20048;-70
2021/12/05 06:16:38;;;;;;;113.28;60.65;;;;;;;23.70;64.28;99069.47;5025056;28;20052;-69
2021/12/05 06:19:28;;;;;;;106.95;57.83;;;;;;;23.44;62.60;99063.56;5041996;28;20041;-69
2021/12/05 06:22:12;;;;;;;120.32;63.20;;;;;;;23.37;64.20;99066.78;5041746;28;20049;-69
2021/12/05 06:25:01;;;;;;;108.47;61.45;;;;;;;23.96;66.89;99063.00;5036612;28;20049;-70
2021/12/05 06:27:45;;;;;;;119.15;64.03;;;;;;;23.62;64.84;99059.56;5028648;28;20040;-69
2021/12/05 06:37:09;;;;;;;107.68;55.92;;;;;;;23.45;64.07;99043.34;5044054;28;20480;-68
2021/12/05 06:45:56;;;;;;;93.72;52.00;;;;;;;23.48;63.21;99029.97;5032674;28;20119;-70
2021/12/05 06:46:20;;;;;;;92.68;51.58;;;;;;;23.97;66.90;99017.28;5004479;28;20135;-71
2021/12/05 06:49:09;;;;;;;72.75;40.67;;;;;;;24.05;63.54;99019.31;5055490;28;20472;-71
2021/12/05 06:52:00;;;;;;;73.88;43.92;;;;;;;24.21;64.59;99018.97;5049744;28;20040;-71
2021/12/05 06:54:43;;;;;;;74.68;42.17;;;;;;;24.19;62.34;99008.50;5073984;28;20061;-71
2021/12/05 06:57:34;;;;;;;80.65;41.97;;;;;;;24.39;65.09;99014.84;5073191;28;20083;-71
2021/12/05 07:00:23;;;;;;;78.57;40.45;;;;;;;24.39;64.94;99006.94;5068752;28;20060;-69
2021/12/05 07:03:13;;;;;;;76.10;39.42;;;;;;;24.48;62.76;99003.56;5070726;28;20050;-69
2021/12/05 07:06:03;;;;;;;80.72;42.08;;;;;;;24.13;62.05;99006.38;5064488;28;20396;-70
2021/12/05 07:08:57;;;;;;;68.78;37.05;;;;;;;23.96;62.88;99001.63;5057976;28;20048;-70
2021/12/05 07:12:07;;;;;;;68.47;36.60;;;;;;;24.02;64.21;98994.06;5076515;28;20110;-71
2021/12/05 07:15:08;;;;;;;66.60;38.88;;;;;;;24.12;62.38;98998.59;5060933;28;20063;-72
2021/12/05 07:42:19;;;;;;;74.50;40.75;;;;;;;23.82;62.80;98941.38;5075066;28;20109;-68
2021/12/05 07:45:01;;;;;;;74.57;39.22;;;;;;;23.98;63.69;98933.91;5069814;28;20843;-68
2021/12/05 07:47:57;;;;;;;65.82;37.40;;;;;;;23.81;63.47;98937.88;5072150;27;20040;-66
2021/12/05 07:50:45;;;;;;;66.28;34.63;;;;;;;23.79;63.23;98934.53;5070210;28;20802;-68
2021/12/05 07:53:45;;;;;;;64.05;37.00;;;;;;;23.79;63.55;98924.00;5071108;28;20047;-69
2021/12/05 07:59:55;;;;;;;64.57;35.42;;;;;;;23.97;62.85;98913.81;5071201;28;20076;-64
2021/12/05 08:15:22;;;;;;;71.88;38.63;;;;;;;23.73;63.61;98897.38;5042728;28;20040;-64
2021/12/05 08:18:11;;;;;;;71.88;38.28;;;;;;;24.09;64.74;98894.41;5054708;28;20052;-67
2021/12/05 08:20:53;;;;;;;73.13;39.95;;;;;;;23.96;63.53;98894.53;5080716;28;20109;-69
2021/12/05 08:23:41;;;;;;;81.82;38.25;;;;;;;24.06;63.45;98894.63;5072211;28;20068;-68
2021/12/05 08:26:32;;;;;;;74.15;40.20;;;;;;;23.95;62.91;98890.22;5068586;28;20471;-68
2021/12/05 08:29:31;;;;;;;74.68;42.60;;;;;;;24.04;64.74;98888.66;5056930;28;20036;-68
2021/12/05 08:32:33;;;;;;;84.38;44.65;;;;;;;24.00;63.45;98887.25;5053943;28;20066;-68
2021/12/05 10:01:54;;;;;;;123.97;63.35;;;;;;;22.92;71.17;98843.28;5035771;28;20072;-68
2021/12/05 10:38:46;;;;;;;150.95;73.95;;;;;;;22.45;81.50;98837.25;5044292;28;20048;-66
2021/12/05 10:44:44;;;;;;;147.77;73.72;;;;;;;22.32;84.31;98833.03;5070170;28;20426;-65
2021/12/05 10:47:51;;;;;;;156.02;75.63;;;;;;;22.22;85.19;98827.66;5077939;28;20047;-67
2021/12/05 10:50:51;;;;;;;150.18;75.80;;;;;;;22.14;86.00;98832.63;5078287;28;20056;-66
2021/12/05 10:53:39;;;;;;;143.52;74.93;;;;;;;21.99;88.30;98836.41;5080045;28;20478;-65
2021/12/05 10:56:43;;;;;;;162.63;79.78;;;;;;;21.90;90.63;98831.81;5065981;28;20052;-64
2021/12/05 10:59:25;;;;;;;177.60;85.93;;;;;;;21.79;88.64;98834.41;5047229;28;20079;-65
2021/12/05 11:02:17;;;;;;;184.93;93.07;;;;;;;21.71;88.53;98833.13;5065440;28;20041;-67
2021/12/05 11:05:00;;;;;;;188.10;95.80;;;;;;;21.63;90.03;98838.09;5080485;28;20053;-67
2021/12/05 11:07:49;;;;;;;201.73;103.22;;;;;;;21.51;91.39;98831.16;5047343;28;20115;-67
2021/12/05 11:10:32;;;;;;;206.90;110.05;;;;;;;21.44;92.87;98832.53;5073519;28;20102;-68
2021/12/05 11:13:29;;;;;;;215.88;112.25;;;;;;;21.30;93.80;98832.69;5049387;28;20079;-66
2021/12/05 11:16:50;;;;;;;223.73;116.95;;;;;;;21.20;95.53;98827.25;5050720;28;20044;-69
2021/12/05 11:19:48;;;;;;;239.13;122.35;;;;;;;21.06;96.30;98827.38;5066754;28;20060;-72
2021/12/05 11:22:34;;;;;;;240.32;127.55;;;;;;;20.95;97.03;98828.13;5050454;28;20048;-67
2021/12/05 11:25:31;;;;;;;270.63;131.77;;;;;;;20.84;97.64;98820.16;5070124;28;20497;-67
2021/12/05 11:28:15;;;;;;;263.90;133.68;;;;;;;20.73;98.87;98819.25;5066247;28;20049;-67
2021/12/05 11:31:04;;;;;;;262.48;135.55;;;;;;;20.64;100.00;98823.34;5060676;28;20745;-66
2021/12/05 11:33:55;;;;;;;254.85;134.43;;;;;;;20.57;100.00;98827.31;5051850;28;20068;-66
2021/12/05 11:36:39;;;;;;;277.83;139.18;;;;;;;20.43;100.00;98836.09;5054376;28;20071;-67
2021/12/05 11:39:31;;;;;;;270.23;138.27;;;;;;;20.37;100.00;98828.66;5064676;28;20090;-66
2021/12/05 11:42:22;;;;;;;262.48;138.57;;;;;;;20.29;100.00;98833.53;5042032;28;20066;-66
2021/12/05 11:45:13;;;;;;;275.50;140.90;;;;;;;20.21;100.00;98830.59;5070945;28;20045;-66
2021/12/05 11:47:56;;;;;;;279.30;141.38;;;;;;;20.14;100.00;98832.78;5046596;28;20488;-66
2021/12/05 11:50:46;;;;;;;272.23;139.05;;;;;;;20.04;100.00;98844.78;5047424;28;20075;-65
2021/12/05 11:54:15;;;;;;;275.40;142.77;;;;;;;19.93;100.00;98839.44;5064822;28;20052;-65
2021/12/05 11:57:32;;;;;;;283.42;142.25;;;;;;;19.87;100.00;98845.09;5064691;28;20492;-67
2021/12/05 12:00:23;;;;;;;288.50;145.27;;;;;;;19.78;100.00;98846.53;5068077;28;20044;-67
2021/12/05 12:03:06;;;;;;;285.33;144.48;;;;;;;19.72;100.00;98852.13;5051410;28;20048;-68
2021/12/05 12:05:56;;;;;;;278.00;146.95;;;;;;;19.66;100.00;98851.69;5065961;28;20040;-67
2021/12/05 12:08:38;;;;;;;289.55;149.50;;;;;;;19.60;100.00;98857.31;5058866;28;20098;-67
2021/12/05 12:11:28;;;;;;;288.77;145.38;;;;;;;19.52;100.00;98854.34;5053691;28;20119;-67
2021/12/05 12:14:10;;;;;;;305.98;144.50;;;;;;;19.48;100.00;98857.13;5012613;28;20056;-67
2021/12/05 12:17:01;;;;;;;291.67;140.48;;;;;;;19.45;100.00;98861.72;5045693;28;20140;-68
2021/12/05 12:19:53;;;;;;;276.40;137.95;;;;;;;19.44;100.00;98865.25;5034298;28;20148;-66
2021/12/05 12:22:45;;;;;;;260.77;137.70;;;;;;;19.38;100.00;98876.09;5068887;28;20143;-67
2021/12/05 12:25:39;;;;;;;284.13;146.05;;;;;;;19.34;100.00;98874.59;5065204;28;20115;-67
2021/12/05 12:28:29;;;;;;;288.95;147.80;;;;;;;19.35;100.00;98882.34;5065227;28;20132;-66
2021/12/05 12:31:35;;;;;;;285.30;142.23;;;;;;;19.24;100.00;98884.78;5065890;28;20056;-66
2021/12/05 12:34:21;;;;;;;293.83;141.30;;;;;;;19.23;100.00;98883.13;5068645;28;20070;-67
2021/12/05 12:37:12;;;;;;;293.87;145.77;;;;;;;19.19;100.00;98892.06;5065669;28;20045;-66
2021/12/05 12:40:02;;;;;;;281.55;143.10;;;;;;;19.16;100.00;98891.41;5071771;28;20367;-67
2021/12/05 12:42:44;;;;;;;289.73;145.60;;;;;;;19.10;100.00;98893.47;5078700;28;20044;-66
2021/12/05 12:45:35;;;;;;;287.17;141.90;;;;;;;19.10;100.00;98897.84;5070390;28;20058;-66
2021/12/05 12:48:35;;;;;;;279.13;141.57;;;;;;;19.05;100.00;98905.13;5072074;28;20064;-66
2021/12/05 12:52:03;;;;;;;287.63;140.20;;;;;;;18.96;100.00;98903.94;5070930;28;20080;-65
2021/12/05 12:54:52;;;;;;;288.20;137.45;;;;;;;18.96;100.00;98916.13;5069032;28;20068;-65
2021/12/05 12:57:41;;;;;;;286.65;139.40;;;;;;;18.95;100.00;98914.44;5058750;28;20036;-68
2021/12/05 13:00:27;;;;;;;291.98;137.05;;;;;;;18.94;100.00;98926.66;5077687;28;20798;-67
2021/12/05 13:03:39;;;;;;;283.43;141.47;;;;;;;18.90;100.00;98925.19;5079505;28;20386;-67
2021/12/05 13:12:49;;;;;;;296.52;140.77;;;;;;;19.05;100.00;98944.31;5044228;28;20079;-69
2021/12/05 13:15:57;;;;;;;287.83;136.35;;;;;;;19.17;100.00;98942.72;5079039;28;20408;-69
2021/12/05 13:18:49;;;;;;;270.00;134.88;;;;;;;19.23;100.00;98940.59;5077335;28;20131;-68
2021/12/05 13:21:43;;;;;;;285.33;137.63;;;;;;;19.17;100.00;98942.72;5076141;28;20059;-69
2021/12/05 13:24:42;;;;;;;290.55;136.05;;;;;;;19.08;100.00;98941.50;5081998;28;20050;-68
2021/12/05 13:27:38;;;;;;;263.43;132.34;;;;;;;19.04;100.00;98945.25;4573179;28;10002793;-69
2021/12/05 13:30:53;;;;;;;287.95;135.07;;;;;;;19.03;100.00;98943.56;5062335;28;20044;-70
2021/12/05 13:33:35;;;;;;;283.17;140.15;;;;;;;18.98;100.00;98945.63;5057581;28;20055;-69
2021/12/05 13:36:37;;;;;;;296.98;138.70;;;;;;;18.99;100.00;98947.31;5072260;28;20150;-70
2021/12/05 13:39:39;;;;;;;289.40;137.43;;;;;;;18.91;100.00;98937.31;5056202;28;20044;-70
2021/12/05 13:42:48;;;;;;;279.23;135.07;;;;;;;18.90;100.00;98943.47;4723302;28;9999834;-70
2021/12/05 13:45:43;;;;;;;290.17;140.93;;;;;;;18.81;100.00;98944.00;5069329;28;20060;-70
2021/12/05 13:48:40;;;;;;;286.92;137.43;;;;;;;18.75;100.00;98943.53;5037754;28;20179;-68
2021/12/05 13:51:23;;;;;;;286.48;138.65;;;;;;;18.72;100.00;98942.78;5062975;28;20040;-68
2021/12/05 13:54:24;;;;;;;281.48;137.90;;;;;;;18.73;100.00;98943.63;5072021;28;20431;-69
2021/12/05 13:57:16;;;;;;;274.05;137.98;;;;;;;18.68;100.00;98938.66;5076389;28;20423;-68
2021/12/05 14:00:39;;;;;;;274.85;137.55;;;;;;;18.65;100.00;98949.28;4716686;28;10000383;-69
2021/12/05 14:03:45;;;;;;;272.90;132.15;;;;;;;18.58;100.00;98947.97;5067893;28;20043;-69
2021/12/05 14:06:40;;;;;;;266.08;130.70;;;;;;;18.55;100.00;98952.47;5064353;28;20143;-71
2021/12/05 14:09:36;;;;;;;267.52;128.48;;;;;;;18.50;100.00;98955.38;5053789;28;20040;-68
2021/12/05 14:12:38;;;;;;;268.15;126.25;;;;;;;18.50;100.00;98954.53;5062483;28;20143;-69
2021/12/05 14:15:28;;;;;;;255.07;127.03;;;;;;;18.42;100.00;98951.53;5076191;28;20036;-69
2021/12/05 14:18:20;;;;;;;246.95;126.60;;;;;;;18.42;100.00;98961.97;5053330;28;20087;-69
2021/12/05 14:21:26;;;;;;;267.25;126.75;;;;;;;18.36;100.00;98957.91;5068800;28;20063;-70
2021/12/05 14:24:09;;;;;;;266.83;126.60;;;;;;;18.38;100.00;98956.06;5075134;28;20067;-69
2021/12/05 14:27:01;;;;;;;260.52;124.45;;;;;;;18.31;100.00;98962.56;5073203;28;20114;-70
2021/12/05 14:30:07;;;;;;;258.08;123.85;;;;;;;18.20;100.00;98965.75;5052089;28;20048;-70
2021/12/05 14:32:58;;;;;;;249.82;122.80;;;;;;;18.26;100.00;98973.28;5072971;28;20048;-68
2021/12/05 14:35:48;;;;;;;257.00;124.97;;;;;;;18.19;100.00;98968.47;5043971;28;20059;-66
2021/12/05 14:38:37;;;;;;;258.83;124.50;;;;;;;18.20;100.00;98962.31;5045297;28;20071;-67
2021/12/05 14:41:20;;;;;;;258.17;126.72;;;;;;;18.15;100.00;98975.63;5062556;28;20049;-68
2021/12/05 14:44:10;;;;;;;282.10;126.15;;;;;;;18.11;100.00;98973.28;5063998;28;20059;-69
2021/12/05 14:47:10;;;;;;;269.70;128.05;;;;;;;18.05;100.00;98981.44;5060184;27;20041;-67
2021/12/05 14:49:58;;;;;;;275.13;132.40;;;;;;;18.03;100.00;98985.91;5052791;28;20068;-69
2021/12/05 14:52:50;;;;;;;279.20;131.88;;;;;;;18.00;100.00;98986.06;5057391;28;20044;-68
2021/12/05 14:55:39;;;;;;;272.38;129.18;;;;;;;17.99;100.00;98990.44;5053685;28;20063;-69
2021/12/05 14:58:23;;;;;;;277.70;132.32;;;;;;;17.97;100.00;98993.13;5061484;28;20067;-68
2021/12/05 15:01:12;;;;;;;262.52;131.32;;;;;;;17.89;100.00;98994.47;5042405;28;20234;-67
2021/12/05 15:04:04;;;;;;;277.35;135.50;;;;;;;17.87;100.00;99002.41;5071564;28;20047;-69
2021/12/05 15:06:59;;;;;;;273.15;135.50;;;;;;;17.83;100.00;99002.63;5052074;28;20048;-68
2021/12/05 15:09:53;;;;;;;277.45;134.88;;;;;;;17.75;100.00;99003.03;5069977;28;20130;-68
2021/12/05 15:12:42;;;;;;;282.20;134.98;;;;;;;17.76;100.00;98999.53;5069697;28;20044;-66
2021/12/05 15:15:29;;;;;;;285.45;135.77;;;;;;;17.73;100.00;99004.88;5067508;28;20044;-67
2021/12/05 15:18:28;;;;;;;265.60;132.23;;;;;;;17.75;100.00;99010.88;5070472;28;20389;-69
2021/12/05 15:21:13;;;;;;;284.15;139.57;;;;;;;17.77;100.00;99011.63;5068427;28;20045;-67
2021/12/05 15:24:16;;;;;;;288.63;143.27;;;;;;;17.78;100.00;99013.31;5069952;28;20036;-68
2021/12/05 15:27:17;;;;;;;275.97;141.30;;;;;;;17.77;100.00;99022.06;5048359;28;20041;-67
2021/12/05 15:30:16;;;;;;;273.88;136.57;;;;;;;17.78;100.00;99018.53;5052917;28;20044;-67
2021/12/05 15:33:02;;;;;;;271.35;134.65;;;;;;;17.82;100.00;99027.84;5061333;28;20329;-67
2021/12/05 15:35:53;;;;;;;284.35;135.38;;;;;;;17.82;100.00;99027.84;5070359;28;20040;-67
2021/12/05 15:38:37;;;;;;;260.92;128.80;;;;;;;17.82;100.00;99030.47;5066973;28;20547;-68
2021/12/05 15:41:29;;;;;;;333.10;167.15;;;;;;;17.91;100.00;99029.97;5026195;28;20597;-67
2021/12/05 15:44:12;;;;;;;328.60;159.27;;;;;;;17.97;100.00;99034.84;5068142;28;20542;-68
2021/12/05 15:47:20;;;;;;;314.50;156.05;;;;;;;18.04;100.00;99043.16;5068211;28;20044;-67
2021/12/05 15:50:13;;;;;;;304.63;147.30;;;;;;;17.96;100.00;99050.56;5047993;28;20064;-67
2021/12/05 15:53:11;;;;;;;284.30;143.23;;;;;;;17.88;100.00;99053.56;5059942;28;20037;-66
2021/12/05 15:55:58;;;;;;;273.38;140.15;;;;;;;17.77;100.00;99048.13;5061463;28;20052;-67
2021/12/05 15:59:07;;;;;;;270.45;136.80;;;;;;;17.76;100.00;99041.22;5067324;28;20064;-67
2021/12/05 16:02:00;;;;;;;270.20;137.95;;;;;;;17.76;100.00;99043.81;5068752;28;20045;-67
2021/12/05 16:04:56;;;;;;;264.95;138.18;;;;;;;17.77;100.00;99044.66;5069073;28;20214;-68
2021/12/05 16:07:38;;;;;;;275.42;139.45;;;;;;;17.77;100.00;99047.28;5064775;28;20044;-68
2021/12/05 16:10:30;;;;;;;282.08;139.18;;;;;;;17.77;100.00;99042.06;5063213;28;20488;-68
2021/12/05 16:13:23;;;;;;;272.60;135.95;;;;;;;17.76;100.00;99049.03;5067411;28;20063;-68
2021/12/05 16:16:19;;;;;;;268.87;135.40;;;;;;;17.79;100.00;99046.28;5047980;28;20063;-67
2021/12/05 16:19:07;;;;;;;262.00;135.20;;;;;;;17.79;100.00;99048.88;5061328;28;20045;-68
2021/12/05 16:21:59;;;;;;;275.60;136.98;;;;;;;17.70;100.00;99051.13;5049214;28;20119;-67
2021/12/05 16:24:43;;;;;;;275.55;136.23;;;;;;;17.69;100.00;99055.50;5062596;28;20698;-67
2021/12/05 16:27:33;;;;;;;272.00;136.40;;;;;;;17.69;100.00;99052.91;5059236;28;20071;-67
2021/12/05 16:30:31;;;;;;;282.00;134.13;;;;;;;17.57;100.00;99051.72;5070259;28;20052;-68
2021/12/05 16:33:23;;;;;;;259.88;132.15;;;;;;;17.49;100.00;99048.69;5068714;28;20048;-67
2021/12/05 16:36:19;;;;;;;263.85;132.07;;;;;;;17.47;100.00;99049.72;5065631;28;20044;-67
2021/12/05 16:38:56;;;;;;;286.70;133.82;;;;;;;17.37;100.00;99053.69;5068520;28;20048;-67
2021/12/05 16:41:53;;;;;;;269.10;132.43;;;;;;;17.33;100.00;99053.00;5068365;28;20067;-67
2021/12/05 16:44:40;;;;;;;279.35;137.10;;;;;;;17.27;100.00;99052.47;5065643;28;20123;-67
2021/12/05 16:47:32;;;;;;;283.75;137.10;;;;;;;17.24;100.00;99055.25;5066401;28;20668;-67
2021/12/05 16:50:28;;;;;;;279.92;133.73;;;;;;;17.25;100.00;99051.72;5063119;28;20044;-67
2021/12/05 16:53:32;;;;;;;284.92;132.45;;;;;;;17.19;100.00;99055.47;5063644;28;20044;-65
2021/12/05 16:56:46;;;;;;;279.45;136.73;;;;;;;17.25;100.00;99049.94;5062432;28;20056;-67
2021/12/05 16:59:43;;;;;;;278.45;133.73;;;;;;;17.24;100.00;99052.66;5057797;28;20063;-68
2021/12/05 17:02:51;;;;;;;285.25;135.75;;;;;;;17.24;100.00;99047.44;5061934;28;20060;-68
2021/12/05 17:05:44;;;;;;;268.83;131.68;;;;;;;17.21;100.00;99044.06;5037778;28;20081;-68
2021/12/05 17:08:32;;;;;;;276.40;130.82;;;;;;;17.21;100.00;99041.47;5065286;28;20067;-68
2021/12/05 17:11:26;;;;;;;286.95;135.23;;;;;;;17.26;100.00;99042.97;5067144;28;20048;-67
2021/12/05 17:14:09;;;;;;;277.10;132.23;;;;;;;17.25;100.00;99043.91;5061849;28;20048;-68
2021/12/05 17:17:00;;;;;;;277.02;134.50;;;;;;;17.23;100.00;99045.75;5062070;28;20398;-67
2021/12/05 17:19:44;;;;;;;274.67;137.23;;;;;;;17.17;100.00;99041.69;4718460;28;10001183;-65
2021/12/05 17:22:40;;;;;;;271.65;131.15;;;;;;;17.11;100.00;99042.84;5043331;28;20566;-65
2021/12/05 17:25:36;;;;;;;283.30;131.27;;;;;;;17.12;100.00;99036.72;5064481;28;20056;-71
2021/12/05 17:28:41;;;;;;;283.92;132.55;;;;;;;17.09;100.00;99039.47;5074164;28;20048;-69
2021/12/05 17:31:42;;;;;;;271.02;131.10;;;;;;;17.13;100.00;99035.81;5069639;28;20040;-67
2021/12/05 17:34:42;;;;;;;296.65;133.68;;;;;;;17.12;100.00;99039.31;5059467;28;20040;-67
2021/12/05 17:37:36;;;;;;;265.17;128.77;;;;;;;17.10;100.00;99045.53;5067945;28;20123;-65
2021/12/05 17:40:39;;;;;;;273.60;130.75;;;;;;;17.14;100.00;99041.88;5064791;28;20048;-69
2021/12/05 17:43:30;;;;;;;261.70;127.80;;;;;;;17.08;100.00;99034.38;5073260;28;20083;-66
2021/12/05 17:46:20;;;;;;;278.73;132.05;;;;;;;17.09;100.00;99034.25;5062823;28;20047;-65
2021/12/05 17:49:20;;;;;;;272.23;129.40;;;;;;;17.20;100.00;99036.34;5054573;28;20056;-67
2021/12/05 17:51:59;;;;;;;278.43;133.43;;;;;;;17.18;100.00;99039.00;5038927;28;20076;-67
2021/12/05 17:54:59;;;;;;;277.88;129.13;;;;;;;17.20;100.00;99039.78;5052450;28;20669;-67
2021/12/05 17:58:01;;;;;;;265.00;130.95;;;;;;;17.17;100.00;99028.66;5061334;28;20055;-68
2021/12/05 18:02:36;;;;;;;260.50;128.85;;;;;;;17.05;100.00;99029.31;5068419;28;20448;-67
2021/12/05 18:04:08;;;;;;;274.60;133.00;;;;;;;16.94;100.00;99029.84;5040897;28;20045;-65
2021/12/05 18:06:50;;;;;;;275.48;133.18;;;;;;;16.92;100.00;99026.47;5048842;28;20122;-68
2021/12/05 18:09:40;;;;;;;288.42;135.27;;;;;;;16.83;100.00;99025.19;5051744;28;20065;-67
2021/12/05 18:12:36;;;;;;;284.40;132.02;;;;;;;16.80;100.00;99027.09;5044829;28;20552;-67
2021/12/05 18:15:27;;;;;;;280.92;136.27;;;;;;;16.77;100.00;99040.25;5038895;28;20187;-67
2021/12/05 18:18:19;;;;;;;280.88;134.85;;;;;;;16.70;100.00;99031.91;5054115;28;20055;-67
2021/12/05 18:21:12;;;;;;;280.17;135.95;;;;;;;16.67;100.00;99041.63;5045060;28;20051;-69
2021/12/05 18:23:56;;;;;;;272.95;134.25;;;;;;;16.62;100.00;99033.19;5048419;28;20068;-68
2021/12/05 18:26:47;;;;;;;290.85;133.15;;;;;;;16.60;100.00;99030.63;5049521;28;20052;-68
2021/12/05 18:29:36;;;;;;;277.73;133.18;;;;;;;16.53;100.00;99020.59;5050501;28;20045;-69